Archiv-/Tagesdaten

--Timestamp---	Temp	Chill	HIndex	Humid	Dewpt	 Wind 	HiWind	WindDir	Rain 	Barom	Solar	 ET  	 UV 
--------------	----	-----	------	-----	-----	------	------	-------	-----	-----	-----	-----	----
20100321 00:00	11.3	11.3	11.3	79	7.8	8	14	248	0.0	1014.9	0	0.025	0.0
20100321 00:05	11.3	11.3	11.3	79	7.8	6	11	248	0.0	1014.7	0	0.000	0.0
20100321 00:10	11.3	11.3	11.3	79	7.8	6	14	248	0.0	1014.7	0	0.000	0.0
20100321 00:15	11.3	11.3	11.3	78	7.6	6	11	248	0.0	1014.7	0	0.000	0.0
20100321 00:20	11.3	11.3	11.3	79	7.8	5	8	248	0.0	1014.7	0	0.000	0.0
20100321 00:25	11.2	11.2	11.2	79	7.7	6	10	202	0.0	1014.7	0	0.000	0.0
20100321 00:30	11.1	11.1	11.1	80	7.7	5	8	202	0.0	1014.6	0	0.000	0.0
20100321 00:35	10.9	10.9	10.9	80	7.6	6	11	202	0.0	1014.6	0	0.000	0.0
20100321 00:40	10.8	10.8	10.8	81	7.6	6	14	202	0.0	1014.5	0	0.000	0.0
20100321 00:45	10.8	10.8	10.8	81	7.6	6	11	202	0.0	1014.6	0	0.000	0.0
20100321 00:50	10.7	10.7	10.7	81	7.6	6	13	225	0.0	1014.6	0	0.000	0.0
20100321 00:55	10.7	10.7	10.7	81	7.6	5	10	248	0.0	1014.6	0	0.000	0.0
20100321 01:00	10.7	10.7	10.7	82	7.7	3	6	248	0.0	1014.5	0	0.025	0.0
20100321 01:05	10.7	10.7	10.7	82	7.7	5	10	248	0.0	1014.2	0	0.000	0.0
20100321 01:10	10.6	10.6	10.6	82	7.7	5	10	202	0.0	1014.2	0	0.000	0.0
20100321 01:15	10.6	10.6	10.6	82	7.7	6	10	202	0.0	1014.2	0	0.000	0.0
20100321 01:20	10.6	10.6	10.6	82	7.7	6	11	202	0.0	1014.2	0	0.000	0.0
20100321 01:25	10.7	10.7	10.7	82	7.7	6	14	202	0.0	1014.2	0	0.000	0.0
20100321 01:30	10.6	10.6	10.6	82	7.7	6	11	202	0.0	1014.1	0	0.000	0.0
20100321 01:35	10.6	10.6	10.6	82	7.6	5	10	202	0.0	1014.1	0	0.000	0.0
20100321 01:40	10.5	10.5	10.5	82	7.6	6	10	225	0.0	1014.2	0	0.000	0.0
20100321 01:45	10.4	10.4	10.4	82	7.5	5	10	202	0.0	1014.1	0	0.000	0.0
20100321 01:50	10.4	10.4	10.4	82	7.5	6	11	202	0.0	1014.1	0	0.000	0.0
20100321 01:55	10.4	10.4	10.4	82	7.4	5	10	202	0.0	1014.0	0	0.000	0.0
20100321 02:00	10.3	10.3	10.3	82	7.4	5	10	225	0.0	1014.0	0	0.025	0.0
20100321 02:05	10.3	10.3	10.3	82	7.4	5	11	202	0.0	1014.0	0	0.000	0.0
20100321 02:10	10.3	10.3	10.3	82	7.4	3	8	202	0.0	1013.9	0	0.000	0.0
20100321 02:15	10.3	10.3	10.3	82	7.4	3	8	202	0.0	1013.9	0	0.000	0.0
20100321 02:20	10.3	10.3	10.3	82	7.4	2	5	202	0.0	1013.9	0	0.000	0.0
20100321 02:25	10.3	10.3	10.3	82	7.4	2	6	202	0.0	1013.9	0	0.000	0.0
20100321 02:30	10.3	10.3	10.3	82	7.4	2	6	202	0.0	1013.8	0	0.000	0.0
20100321 02:35	10.3	10.3	10.3	82	7.4	3	8	202	0.0	1013.9	0	0.000	0.0
20100321 02:40	10.3	10.3	10.3	82	7.3	2	5	202	0.0	1013.8	0	0.000	0.0
20100321 02:45	10.3	10.3	10.3	82	7.3	5	10	202	0.0	1013.7	0	0.000	0.0
20100321 02:50	10.3	10.3	10.3	81	7.2	5	8	180	0.0	1013.7	0	0.000	0.0
20100321 02:55	10.3	10.3	10.3	81	7.2	6	13	202	0.0	1013.7	0	0.000	0.0
20100321 03:00	10.3	10.3	10.3	79	6.8	8	16	202	0.0	1013.7	0	0.025	0.0
20100321 03:05	10.3	10.3	10.3	77	6.4	8	16	202	0.0	1013.8	0	0.000	0.0
20100321 03:10	10.3	10.3	10.3	76	6.3	8	14	180	0.0	1013.8	0	0.000	0.0
20100321 03:15	10.3	10.3	10.3	75	6.1	6	11	180	0.0	1013.7	0	0.000	0.0
20100321 03:20	10.3	10.3	10.3	75	6.0	5	10	202	0.0	1013.7	0	0.000	0.0
20100321 03:25	10.3	10.3	10.3	75	6.0	5	10	180	0.0	1013.5	0	0.000	0.0
20100321 03:30	10.2	10.2	10.2	76	6.2	6	11	180	0.0	1013.4	0	0.000	0.0
20100321 03:35	10.2	10.2	10.2	75	5.9	5	8	180	0.0	1013.5	0	0.000	0.0
20100321 03:40	10.1	10.1	10.1	76	6.0	6	11	202	0.0	1013.5	0	0.000	0.0
20100321 03:45	9.9	9.9	9.9	78	6.3	5	10	180	0.0	1013.5	0	0.000	0.0
20100321 03:50	9.8	9.8	9.8	78	6.1	5	10	180	0.0	1013.4	0	0.000	0.0
20100321 03:55	9.7	9.7	9.7	79	6.3	5	8	180	0.0	1013.3	0	0.000	0.0
20100321 04:00	9.6	9.6	9.6	79	6.1	3	6	180	0.0	1013.3	0	0.025	0.0
20100321 04:05	9.6	9.6	9.6	79	6.1	2	6	180	0.0	1013.4	0	0.000	0.0
20100321 04:10	9.5	9.5	9.5	79	6.0	2	6	180	0.0	1013.3	0	0.000	0.0
20100321 04:15	9.5	9.5	9.5	79	6.0	2	5	180	0.0	1013.3	0	0.000	0.0
20100321 04:20	9.5	9.5	9.5	79	6.0	5	8	180	0.0	1013.2	0	0.000	0.0
20100321 04:25	9.6	9.6	9.6	78	5.9	5	8	180	0.0	1013.3	0	0.000	0.0
20100321 04:30	9.6	9.6	9.6	78	5.9	5	10	180	0.0	1013.2	0	0.000	0.0
20100321 04:35	9.6	9.6	9.6	78	6.0	3	8	180	0.0	1013.2	0	0.000	0.0
20100321 04:40	9.6	9.6	9.6	78	6.0	5	8	180	0.0	1013.3	0	0.000	0.0
20100321 04:45	9.6	9.6	9.6	77	5.8	3	6	180	0.0	1013.2	0	0.000	0.0
20100321 04:50	9.7	9.7	9.7	77	5.8	5	6	180	0.0	1013.2	0	0.000	0.0
20100321 04:55	9.7	9.7	9.7	77	5.8	3	6	180	0.0	1013.3	0	0.000	0.0
20100321 05:00	9.6	9.6	9.6	78	6.0	2	5	180	0.0	1013.3	0	0.025	0.0
20100321 05:05	9.6	9.6	9.6	78	5.9	3	6	180	0.0	1013.3	0	0.000	0.0
20100321 05:10	9.6	9.6	9.6	78	5.9	3	6	180	0.0	1013.3	0	0.000	0.0
20100321 05:15	9.6	9.6	9.6	78	5.9	5	10	180	0.0	1013.3	0	0.000	0.0
20100321 05:20	9.5	9.5	9.5	78	5.9	5	8	202	0.0	1013.1	0	0.000	0.0
20100321 05:25	9.5	9.5	9.5	78	5.9	5	8	202	0.0	1013.1	0	0.000	0.0
20100321 05:30	9.5	9.5	9.5	78	5.9	5	8	202	0.0	1013.0	0	0.000	0.0
20100321 05:35	9.4	8.7	9.4	78	5.8	6	10	180	0.0	1013.0	0	0.000	0.0
20100321 05:40	9.5	9.5	9.5	77	5.7	5	6	180	0.0	1013.0	0	0.000	0.0
20100321 05:45	9.6	8.9	9.6	76	5.5	6	10	180	0.0	1012.9	0	0.000	0.0
20100321 05:50	9.6	9.6	9.6	77	5.7	5	10	180	0.0	1012.8	0	0.000	0.0
20100321 05:55	9.4	9.4	9.4	78	5.8	3	6	180	0.0	1012.8	0	0.000	0.0
20100321 06:00	9.4	9.4	9.4	79	5.9	5	11	180	0.0	1012.9	0	0.025	0.0
20100321 06:05	9.4	9.4	9.4	79	5.9	5	11	202	0.0	1013.0	0	0.000	0.0
20100321 06:10	9.3	8.6	9.3	80	6.1	6	11	202	0.0	1013.1	0	0.000	0.0
20100321 06:15	9.3	9.3	9.3	80	6.0	5	10	180	0.0	1013.0	0	0.000	0.0
20100321 06:20	9.3	9.3	9.3	80	6.0	5	8	180	0.0	1013.1	0	0.000	0.0
20100321 06:25	9.2	8.5	9.2	80	6.0	6	11	180	0.0	1013.0	0	0.000	0.0
20100321 06:30	9.2	8.4	9.2	80	5.9	6	11	180	0.0	1013.0	0	0.000	0.0
20100321 06:35	9.1	8.3	9.1	80	5.8	6	11	202	0.0	1013.1	0	0.000	0.0
20100321 06:40	9.2	8.4	9.2	79	5.7	6	11	180	0.0	1013.0	0	0.000	0.0
20100321 06:45	9.2	9.2	9.2	79	5.7	5	10	180	0.0	1013.0	3	0.000	0.0
20100321 06:50	9.2	9.2	9.2	79	5.8	5	8	202	0.0	1013.0	5	0.000	0.0
20100321 06:55	9.3	9.3	9.3	78	5.6	3	10	202	0.0	1013.3	1	0.000	0.0
20100321 07:00	9.3	8.2	9.3	78	5.6	8	11	225	0.0	1013.9	2	0.025	0.0
20100321 07:05	9.2	7.8	9.2	78	5.6	10	18	225	0.0	1014.3	1	0.000	0.0
20100321 07:10	9.5	6.8	9.5	77	5.7	19	37	248	0.2	1014.6	5	0.000	0.0
20100321 07:15	10.2	10.2	10.2	79	6.7	24	35	248	0.0	1014.5	14	0.000	0.0
20100321 07:20	10.4	10.4	10.4	81	7.3	23	45	270	0.0	1014.5	9	0.000	0.0
20100321 07:25	10.3	10.3	10.3	83	7.5	19	31	270	0.2	1014.5	6	0.000	0.0
20100321 07:30	10.1	10.1	10.1	85	7.6	16	26	270	0.2	1014.6	8	0.000	0.0
20100321 07:35	9.9	7.7	9.9	86	7.7	16	29	270	0.2	1014.6	16	0.000	0.0
20100321 07:40	9.8	8.0	9.8	87	7.8	13	24	248	0.0	1014.7	19	0.000	0.0
20100321 07:45	9.8	7.8	9.8	87	7.8	14	24	248	0.0	1014.6	20	0.000	0.0
20100321 07:50	9.8	8.5	9.8	87	7.8	10	19	248	0.0	1014.6	15	0.000	0.0
20100321 07:55	9.8	8.2	9.8	87	7.8	11	19	248	0.0	1014.7	31	0.000	0.0
20100321 08:00	9.8	8.5	9.8	87	7.8	10	18	248	0.0	1014.7	57	0.025	0.0
20100321 08:05	9.9	8.9	9.9	88	8.0	8	18	248	0.0	1014.9	70	0.000	0.0
20100321 08:10	9.9	9.3	9.9	88	8.0	6	13	225	0.0	1014.9	56	0.000	0.0
20100321 08:15	10.0	10.0	10.0	88	8.1	6	11	225	0.0	1014.9	53	0.000	0.0
20100321 08:20	10.1	10.1	10.1	88	8.2	8	16	248	0.0	1014.9	69	0.000	0.0
20100321 08:25	10.2	10.2	10.2	88	8.3	8	18	225	0.0	1014.8	80	0.000	0.0
20100321 08:30	10.3	10.3	10.3	88	8.4	10	23	248	0.0	1015.0	70	0.000	0.0
20100321 08:35	10.4	10.4	10.4	88	8.5	10	16	248	0.0	1015.2	51	0.000	0.0
20100321 08:40	10.4	10.4	10.4	88	8.5	10	16	248	0.0	1015.4	49	0.000	0.0
20100321 08:45	10.4	10.4	10.4	87	8.4	14	23	225	0.2	1015.6	45	0.000	0.0
20100321 08:50	10.4	10.4	10.4	88	8.5	13	23	248	0.0	1015.8	37	0.000	0.0
20100321 08:55	10.4	10.4	10.4	88	8.5	14	24	270	0.2	1015.8	41	0.000	0.0
20100321 09:00	10.4	10.4	10.4	88	8.5	14	24	248	0.0	1015.8	50	0.051	0.0
20100321 09:05	10.3	10.3	10.3	89	8.6	14	26	248	0.2	1015.9	57	0.000	0.0
20100321 09:10	10.3	10.3	10.3	89	8.6	13	26	248	0.0	1016.0	63	0.000	0.0
20100321 09:15	10.3	10.3	10.3	89	8.6	11	23	248	0.0	1016.0	63	0.000	0.0
20100321 09:20	10.4	10.4	10.4	89	8.7	13	24	248	0.0	1016.0	55	0.000	0.0
20100321 09:25	10.4	10.4	10.4	88	8.5	16	26	248	0.2	1016.1	47	0.000	0.0
20100321 09:30	10.4	10.4	10.4	88	8.5	14	24	248	0.0	1016.2	46	0.000	0.0
20100321 09:35	10.5	10.5	10.5	87	8.4	16	26	225	0.2	1016.2	43	0.000	0.0
20100321 09:40	10.5	10.5	10.5	87	8.4	14	24	248	0.0	1016.1	47	0.000	0.0
20100321 09:45	10.4	10.4	10.4	87	8.4	13	21	248	0.2	1016.1	63	0.000	0.3
20100321 09:50	10.4	10.4	10.4	87	8.3	13	23	225	0.0	1016.0	77	0.000	0.6
20100321 09:55	10.4	10.4	10.4	87	8.3	11	23	225	0.0	1015.9	76	0.000	0.6
20100321 10:00	10.4	10.4	10.4	87	8.3	11	19	248	0.0	1015.9	78	0.051	0.6
20100321 10:05	10.4	10.4	10.4	87	8.4	11	19	225	0.0	1015.8	128	0.000	0.9
20100321 10:10	10.6	10.6	10.6	87	8.5	13	21	225	0.0	1015.8	215	0.000	1.4
20100321 10:15	10.8	10.8	10.8	87	8.7	11	19	225	0.0	1015.8	185	0.000	1.4
20100321 10:20	10.9	10.9	10.9	86	8.6	11	19	225	0.0	1015.8	149	0.000	1.1
20100321 10:25	10.9	10.9	10.9	86	8.7	16	24	248	0.0	1015.9	160	0.000	1.2
20100321 10:30	11.0	11.0	11.0	85	8.6	13	24	225	0.0	1015.9	181	0.000	1.4
20100321 10:35	11.1	11.1	11.1	85	8.7	13	21	225	0.0	1016.0	196	0.000	1.5
20100321 10:40	11.3	11.3	11.3	83	8.5	16	29	225	0.0	1016.0	171	0.000	1.4
20100321 10:45	11.4	11.4	11.4	82	8.4	16	27	248	0.0	1016.0	173	0.000	1.3
20100321 10:50	11.5	11.5	11.5	82	8.5	16	23	225	0.0	1016.0	170	0.000	1.3
20100321 10:55	11.6	11.6	11.6	81	8.5	16	27	225	0.0	1016.0	155	0.000	1.3
20100321 11:00	11.7	11.7	11.7	81	8.5	16	31	248	0.0	1016.1	142	0.102	1.2
20100321 11:05	11.7	11.7	11.7	81	8.5	10	23	248	0.0	1016.1	82	0.000	0.7
20100321 11:10	11.7	11.7	11.7	82	8.8	14	27	270	0.0	1016.1	63	0.000	0.5
20100321 11:15	11.8	11.8	11.8	81	8.6	14	29	248	0.0	1016.2	51	0.000	0.0
20100321 11:20	11.9	11.9	11.9	81	8.7	13	23	248	0.0	1016.3	87	0.000	0.6
20100321 11:25	11.9	11.9	11.9	81	8.7	10	19	248	0.0	1016.4	96	0.000	0.8
20100321 11:30	11.9	11.9	11.9	81	8.8	14	27	248	0.0	1016.3	123	0.000	1.0
20100321 11:35	12.1	12.1	12.1	80	8.7	13	27	248	0.0	1016.2	188	0.000	1.5
20100321 11:40	12.3	12.3	12.3	80	8.9	16	27	270	0.0	1016.3	180	0.000	1.4
20100321 11:45	12.4	12.4	12.4	79	8.9	16	27	248	0.0	1016.3	93	0.000	0.7
20100321 11:50	12.3	12.3	12.3	80	8.9	14	31	248	0.0	1016.3	102	0.000	0.8
20100321 11:55	12.2	12.2	12.2	80	8.8	18	32	248	0.0	1016.4	122	0.000	1.0
20100321 12:00	12.2	12.2	12.2	83	9.4	18	31	248	0.0	1016.3	108	0.076	0.9
20100321 12:05	12.2	12.2	12.2	80	8.9	16	31	248	0.0	1016.5	110	0.000	0.9
20100321 12:10	12.2	12.2	12.2	80	8.9	13	23	248	0.0	1016.5	100	0.000	0.8
20100321 12:15	12.2	12.2	12.2	80	8.9	16	35	270	0.0	1016.5	74	0.000	0.6
20100321 12:20	12.3	12.3	12.3	80	8.9	13	24	248	0.0	1016.5	58	0.000	0.3
20100321 12:25	12.2	12.2	12.2	79	8.7	14	26	248	0.0	1016.4	76	0.000	0.7
20100321 12:30	12.2	12.2	12.2	78	8.5	14	24	248	0.0	1016.5	65	0.000	0.6
20100321 12:35	12.3	12.3	12.3	78	8.6	16	29	248	0.0	1016.6	91	0.000	0.8
20100321 12:40	12.3	12.3	12.3	77	8.4	18	31	270	0.0	1016.5	124	0.000	1.2
20100321 12:45	12.4	12.4	12.4	77	8.5	18	29	270	0.0	1016.6	106	0.000	1.0
20100321 12:50	12.4	12.4	12.4	77	8.5	16	29	270	0.0	1016.6	111	0.000	1.1
20100321 12:55	12.5	12.5	12.5	77	8.6	16	26	270	0.0	1016.5	101	0.000	1.0
20100321 13:00	12.7	12.7	12.7	75	8.3	19	37	248	0.0	1016.5	139	0.076	1.1
20100321 13:05	12.8	12.8	12.8	74	8.3	18	31	248	0.0	1016.4	171	0.000	1.4
20100321 13:10	13.0	13.0	13.0	73	8.3	19	37	270	0.0	1016.3	179	0.000	1.4
20100321 13:15	13.2	13.2	13.2	72	8.2	18	34	248	0.0	1016.3	267	0.000	2.0
20100321 13:20	13.4	13.4	13.4	72	8.5	19	34	248	0.0	1016.2	363	0.000	2.6
20100321 13:25	13.7	13.7	13.7	71	8.6	18	31	248	0.0	1016.0	324	0.000	2.5
20100321 13:30	13.9	13.9	13.9	68	8.1	21	32	248	0.0	1015.9	297	0.000	2.4
20100321 13:35	14.1	14.1	14.1	68	8.2	21	37	248	0.0	1016.0	395	0.000	2.7
20100321 13:40	14.3	14.3	14.3	67	8.2	18	32	248	0.0	1016.0	366	0.000	2.7
20100321 13:45	14.3	14.3	14.3	68	8.5	16	32	248	0.0	1016.1	235	0.000	1.7
20100321 13:50	14.3	14.3	14.3	68	8.5	18	32	248	0.0	1016.1	212	0.000	1.6
20100321 13:55	14.3	14.3	14.3	67	8.3	18	26	248	0.0	1016.1	185	0.000	1.4
20100321 14:00	14.3	14.3	14.3	67	8.2	18	31	248	0.0	1016.3	153	0.203	1.1
20100321 14:05	14.3	14.3	14.3	67	8.2	18	32	225	0.0	1016.3	134	0.000	1.1
20100321 14:10	14.3	14.3	14.3	68	8.5	19	35	248	0.0	1016.3	120	0.000	0.9
20100321 14:15	14.3	14.3	14.3	67	8.3	19	37	270	0.0	1016.4	162	0.000	1.2
20100321 14:20	14.4	14.4	14.4	67	8.3	19	34	270	0.0	1016.3	162	0.000	1.1
20100321 14:25	14.4	14.4	14.4	66	8.2	23	35	248	0.0	1016.2	193	0.000	1.2
20100321 14:30	14.5	14.5	14.5	66	8.2	24	43	270	0.0	1016.5	198	0.000	1.3
20100321 14:35	14.7	14.7	14.7	66	8.4	26	40	270	0.0	1016.3	303	0.000	1.8
20100321 14:40	14.9	14.9	14.9	67	8.9	21	35	270	0.0	1016.1	348	0.000	2.0
20100321 14:45	15.0	15.0	15.0	66	8.7	21	42	270	0.0	1016.1	250	0.000	1.9
20100321 14:50	15.0	15.0	15.0	65	8.5	21	35	248	0.0	1016.1	195	0.000	1.4
20100321 14:55	15.0	15.0	15.0	65	8.5	24	39	248	0.0	1016.0	279	0.000	1.7
20100321 15:00	15.0	15.0	15.0	64	8.2	23	39	248	0.0	1016.0	224	0.203	1.6
20100321 15:05	15.0	15.0	15.0	65	8.5	21	35	270	0.0	1016.2	186	0.000	1.5
20100321 15:10	14.9	14.9	14.9	65	8.4	23	39	270	0.0	1016.2	221	0.000	1.3
20100321 15:15	14.9	14.9	14.9	65	8.4	23	34	270	0.0	1016.2	211	0.000	1.2
20100321 15:20	14.8	14.8	14.8	66	8.5	24	42	270	0.0	1016.2	166	0.000	0.9



Please note the license to use and transfer of this data:
http://creativecommons.org/licenses/by-nc-sa/3.0/deed.en

Bitte beachten sie die Lizenz zur Verwertung und Weitergabe der Daten:
http://creativecommons.org/licenses/by-nc-sa/3.0/deed.de

zurück zur Übersicht der Archivdaten (Monats und Tagesdaten)

Cookies helfen bei der Bereitstellung von Inhalten. Durch die Nutzung dieser Seiten erklärst du dich damit einverstanden, dass Cookies auf deinem Rechner gespeichert werden. Weitere Information